Kinkaid, Illinois
Current Conditions -  °F | °C
As of 2:52 PM on Friday 28 Nov 2014 (Local Time) from KMDH Reporting Station
Clear Clear  
Wind Chill:   Ceiling: Unl
Heat Index:   Visibility: 10mi
Dew Point: -1°   Wind: 20mph
Humidity: 52%   Direction: 190°S
Pressure: 30.07"   Gusts: NA
Location:  37.8835°N, 89.4465°W
Report Text: KMDH 282052Z AUTO 19017KT 10SM CLR 08/M01 A3007 RMK AO2 PK WND 20032/2013 SLP187 T00831011 56044
Loading
Personal Weather Stations






























Interactive Weather Map New forecast layout! Learn more

10-Day Weather Forecast

Advertisements
Track Severe Weather on mobile